createdAt,value
2022-10-30T00:00:02.515Z,17.15
2022-10-30T00:15:02.271Z,17.15
2022-10-30T00:30:01.965Z,17.15
2022-10-30T00:45:01.662Z,17.14
2022-10-30T01:00:02.329Z,17.11
2022-10-30T01:15:02.006Z,17.04
2022-10-30T01:30:01.699Z,17.02
2022-10-30T01:45:02.357Z,16.96
2022-10-30T02:00:01.999Z,16.83
2022-10-30T02:15:01.655Z,16.64
2022-10-30T02:30:02.350Z,16.55
2022-10-30T02:45:02.046Z,16.47
2022-10-30T03:00:01.707Z,16.38
2022-10-30T03:15:02.397Z,16.26
2022-10-30T03:30:02.087Z,16.11
2022-10-30T03:45:01.780Z,15.94
2022-10-30T04:00:02.432Z,15.74
2022-10-30T04:15:02.063Z,15.56
2022-10-30T04:30:01.785Z,15.18
2022-10-30T04:45:04.952Z,15.12
2022-10-30T05:00:01.902Z,14.89
2022-10-30T05:15:02.622Z,14.83
2022-10-30T05:30:01.946Z,14.8
2022-10-30T05:45:02.425Z,14.59
2022-10-30T06:00:02.463Z,14.42
2022-10-30T06:15:02.123Z,14.17
2022-10-30T06:30:01.834Z,14.05
2022-10-30T06:45:02.489Z,13.87
2022-10-30T07:00:02.248Z,13.74
2022-10-30T07:15:01.983Z,13.6
2022-10-30T07:30:01.668Z,13.52
2022-10-30T07:45:02.441Z,13.49
2022-10-30T08:00:04.391Z,13.49
2022-10-30T08:15:02.565Z,13.52
2022-10-30T08:30:02.242Z,13.58
2022-10-30T08:45:01.977Z,13.71
2022-10-30T09:00:01.644Z,13.91
2022-10-30T09:15:02.325Z,14.24
2022-10-30T09:30:02.007Z,14.71
2022-10-30T09:45:27.236Z,15.23
2022-10-30T10:00:01.643Z,15.88
2022-10-30T10:15:02.258Z,16.4
2022-10-30T10:30:01.994Z,17.1
2022-10-30T10:45:01.676Z,17.68
2022-10-30T11:00:02.315Z,18.29
2022-10-30T11:15:01.918Z,18.71
2022-10-30T11:30:01.670Z,19.11
2022-10-30T11:45:02.314Z,19.63
2022-10-30T12:00:05.267Z,19.97
2022-10-30T12:15:02.274Z,20.35
2022-10-30T12:30:08.497Z,20.59
2022-10-30T12:45:02.261Z,20.88
2022-10-30T13:00:01.902Z,21.05
2022-10-30T13:15:02.551Z,21.17
2022-10-30T13:30:02.227Z,21.24
2022-10-30T13:45:01.919Z,21.44
2022-10-30T14:00:02.556Z,21.5
2022-10-30T14:15:02.227Z,21.54
2022-10-30T14:30:01.973Z,21.48
2022-10-30T14:45:01.630Z,21.38
2022-10-30T15:00:02.267Z,21.29
2022-10-30T15:15:01.937Z,21.15
2022-10-30T15:30:01.674Z,20.99
2022-10-30T15:45:02.330Z,20.78
2022-10-30T16:00:02.098Z,20.48
2022-10-30T16:15:01.820Z,20.22
2022-10-30T16:30:02.548Z,19.96
2022-10-30T16:45:02.152Z,19.67
2022-10-30T17:00:01.842Z,19.38
2022-10-30T17:15:02.490Z,19.08
2022-10-30T17:30:02.209Z,18.78
2022-10-30T17:45:01.891Z,18.52
2022-10-30T18:00:02.542Z,18.18
2022-10-30T18:15:02.147Z,17.95
2022-10-30T18:30:01.843Z,17.73
2022-10-30T18:45:02.519Z,17.39
2022-10-30T19:00:02.140Z,17.15
2022-10-30T19:15:01.837Z,16.9
2022-10-30T19:30:02.484Z,16.68
2022-10-30T19:45:02.134Z,16.51
2022-10-30T20:00:01.793Z,16.28
2022-10-30T20:15:02.450Z,16.07
2022-10-30T20:30:02.109Z,15.89
2022-10-30T20:45:01.795Z,15.7
2022-10-30T21:00:02.469Z,15.53
2022-10-30T21:15:02.120Z,15.39
2022-10-30T21:30:01.791Z,15.36
2022-10-30T21:45:02.439Z,15.28
2022-10-30T22:00:06.025Z,15.19
2022-10-30T22:15:01.932Z,15.03
2022-10-30T22:30:01.632Z,14.97
2022-10-30T22:45:02.313Z,14.89
2022-10-30T23:00:02.087Z,14.76
2022-10-30T23:15:01.731Z,14.67
2022-10-30T23:30:02.431Z,14.56
2022-10-30T23:45:02.061Z,14.43
